Time;durP1;ratioP1;P1;durP2;ratioP2;P2;SDS_P1;SDS_P2;PMS_P1;PMS_P2;Temp;Humidity;BMP_temperature;BMP_pressure;BME280_temperature;BME280_humidity;BME280_pressure;Samples;Min_cycle;Max_cycle;Signal;HPM_P1;HPM_P2
2021/04/06 00:05:18;;;;;;;14.27;3.10;;;;;;;;;;10767911;22;20250;-75
2021/04/06 00:10:29;;;;;;;13.80;3.13;;;;;;;;;;10451764;28;20814;-76
2021/04/06 00:15:31;;;;;;;9.00;2.70;;;;;;;;;;10453288;28;21048;-76
2021/04/06 00:20:39;;;;;;;13.70;2.50;;;;;;;;;;10444472;28;20214;-75
2021/04/06 00:25:44;;;;;;;14.83;2.90;;;;;;;;;;10461386;28;20230;-75
2021/04/06 00:30:49;;;;;;;9.67;2.30;;;;;;;;;;10441879;28;20242;-75
2021/04/06 00:35:56;;;;;;;14.70;2.80;;;;;;;;;;10457913;28;20711;-75
2021/04/06 00:41:09;;;;;;;13.50;3.00;;;;;;;;;;10460250;28;22538;-75
2021/04/06 00:46:57;;;;;;;11.90;3.30;;;;;;;;;;10451011;28;20199;-76
2021/04/06 00:52:06;;;;;;;14.03;3.40;;;;;;;;;;10459938;28;20241;-76
2021/04/06 00:57:15;;;;;;;11.00;3.07;;;;;;;;;;10461423;28;20211;-76
2021/04/06 01:08:22;;;;;;;9.27;2.30;;;;;;;;;;10460259;28;20219;-76
2021/04/06 01:19:06;;;;;;;12.80;2.80;;;;;;;;;;10458257;28;20245;-76
2021/04/06 01:24:09;;;;;;;10.73;2.80;;;;;;;;;;10454760;28;20230;-76
2021/04/06 01:29:12;;;;;;;12.47;3.27;;;;;;;;;;10452508;28;20346;-76
2021/04/06 01:40:12;;;;;;;11.13;3.23;;;;;;;;;;10446967;28;20222;-76
2021/04/06 01:45:21;;;;;;;9.03;3.07;;;;;;;;;;10448872;28;20219;-76
2021/04/06 01:50:23;;;;;;;10.57;2.60;;;;;;;;;;10452791;28;20503;-76
2021/04/06 02:01:23;;;;;;;7.07;2.37;;;;;;;;;;10452405;28;20668;-76
2021/04/06 02:06:26;;;;;;;9.07;2.20;;;;;;;;;;10450321;28;20492;-76
2021/04/06 02:11:28;;;;;;;7.30;2.37;;;;;;;;;;10449475;28;20270;-76
2021/04/06 02:16:47;;;;;;;6.77;2.23;;;;;;;;;;10446779;28;20602;-76
2021/04/06 02:21:50;;;;;;;9.23;2.20;;;;;;;;;;10448429;28;20211;-75
2021/04/06 02:27:00;;;;;;;9.53;2.40;;;;;;;;;;10444187;28;20211;-75
2021/04/06 02:32:20;;;;;;;8.53;2.20;;;;;;;;;;10452988;28;20242;-76
2021/04/06 02:37:39;;;;;;;7.73;2.00;;;;;;;;;;10445481;28;20683;-75
2021/04/06 02:43:14;;;;;;;7.67;2.40;;;;;;;;;;10446328;28;20211;-75
2021/04/06 02:48:51;;;;;;;10.53;2.37;;;;;;;;;;10430897;28;22267;-76
2021/04/06 02:59:39;;;;;;;6.23;1.80;;;;;;;;;;10444694;28;20279;-75
2021/04/06 03:04:41;;;;;;;7.40;2.10;;;;;;;;;;10448625;28;20231;-74
2021/04/06 03:10:03;;;;;;;5.90;1.97;;;;;;;;;;10450135;28;20217;-75
2021/04/06 03:15:23;;;;;;;7.07;2.27;;;;;;;;;;10450614;28;20288;-75
2021/04/06 03:26:18;;;;;;;8.57;2.23;;;;;;;;;;10449184;28;20765;-76
2021/04/06 03:31:32;;;;;;;7.60;2.50;;;;;;;;;;10448560;28;20707;-76
2021/04/06 03:36:54;;;;;;;;;;;;;;;;;;;;;
2021/04/06 03:42:54;;;;;;;7.13;2.20;;;;;;;;;;10427883;28;20206;-76
2021/04/06 03:48:08;;;;;;;9.10;2.20;;;;;;;;;;10447009;28;20517;-75
2021/04/06 03:53:15;;;;;;;6.90;2.27;;;;;;;;;;10448760;28;20235;-75
2021/04/06 03:58:25;;;;;;;5.70;1.87;;;;;;;;;;10450699;28;20276;-76
2021/04/06 04:03:44;;;;;;;8.47;1.90;;;;;;;;;;10455691;28;20235;-76
2021/04/06 04:08:53;;;;;;;5.63;1.90;;;;;;;;;;10452610;28;20206;-76
2021/04/06 04:14:05;;;;;;;5.93;1.93;;;;;;;;;;10454667;28;20247;-75
2021/04/06 04:19:07;;;;;;;10.17;2.40;;;;;;;;;;10454779;28;20826;-76
2021/04/06 04:24:10;;;;;;;6.10;1.97;;;;;;;;;;10445726;28;20237;-76
2021/04/06 04:29:23;;;;;;;10.47;2.20;;;;;;;;;;10450451;28;20203;-76
2021/04/06 04:34:25;;;;;;;6.43;1.93;;;;;;;;;;10454706;28;20814;-75
2021/04/06 04:39:27;;;;;;;4.50;1.50;;;;;;;;;;10451543;28;20223;-75
2021/04/06 04:44:35;;;;;;;4.50;1.73;;;;;;;;;;10452747;28;20207;-76
2021/04/06 04:49:37;;;;;;;9.47;2.43;;;;;;;;;;10450792;28;20268;-75
2021/04/06 05:06:27;;;;;;;5.20;1.70;;;;;;;;;;10453372;28;20226;-77
2021/04/06 05:23:59;;;;;;;4.43;1.73;;;;;;;;;;10423735;28;20222;-76
2021/04/06 05:29:15;;;;;;;3.67;1.63;;;;;;;;;;10446741;28;20225;-76
2021/04/06 05:34:26;;;;;;;6.43;1.70;;;;;;;;;;10446423;28;20291;-76
2021/04/06 05:39:32;;;;;;;6.77;1.90;;;;;;;;;;10433115;28;20725;-76
2021/04/06 05:44:39;;;;;;;7.00;1.80;;;;;;;;;;10443064;28;20207;-76
2021/04/06 05:49:53;;;;;;;5.40;1.67;;;;;;;;;;10448862;28;20794;-75
2021/04/06 05:55:01;;;;;;;5.33;1.80;;;;;;;;;;10440458;28;20239;-75
2021/04/06 06:00:11;;;;;;;7.03;1.90;;;;;;;;;;10445656;28;20435;-75
2021/04/06 06:05:27;;;;;;;7.03;2.30;;;;;;;;;;10442362;28;20348;-77
2021/04/06 06:16:50;;;;;;;4.97;1.70;;;;;;;;;;10430580;28;20298;-76
2021/04/06 06:21:53;;;;;;;9.03;2.03;;;;;;;;;;10441621;28;20219;-76
2021/04/06 06:26:58;;;;;;;6.27;1.90;;;;;;;;;;10441766;28;20264;-76
2021/04/06 06:32:19;;;;;;;6.70;2.27;;;;;;;;;;10444312;28;20249;-76
2021/04/06 06:37:26;;;;;;;7.53;1.80;;;;;;;;;;10445761;28;20222;-77
2021/04/06 06:42:30;;;;;;;6.10;2.00;;;;;;;;;;10436330;28;20795;-76
2021/04/06 06:47:36;;;;;;;7.77;2.00;;;;;;;;;;10446191;28;20217;-76
2021/04/06 06:52:39;;;;;;;7.37;1.90;;;;;;;;;;10452055;28;20349;-75
2021/04/06 06:57:41;;;;;;;3.73;1.63;;;;;;;;;;10445453;28;20591;-77
2021/04/06 07:02:44;;;;;;;5.40;2.00;;;;;;;;;;10448035;28;20235;-75
2021/04/06 07:07:55;;;;;;;5.20;1.63;;;;;;;;;;10446156;28;20215;-75
2021/04/06 07:12:58;;;;;;;3.63;1.43;;;;;;;;;;10450110;28;20242;-76
2021/04/06 07:18:03;;;;;;;5.77;1.90;;;;;;;;;;10452864;28;20211;-77
2021/04/06 07:23:08;;;;;;;6.73;1.73;;;;;;;;;;10443723;28;20903;-77
2021/04/06 07:28:10;;;;;;;6.80;2.00;;;;;;;;;;10448526;28;20233;-76
2021/04/06 07:33:14;;;;;;;6.50;2.00;;;;;;;;;;10452051;28;20265;-76
2021/04/06 07:38:17;;;;;;;4.83;1.67;;;;;;;;;;10455430;28;20207;-77
2021/04/06 07:43:20;;;;;;;5.93;1.87;;;;;;;;;;10455434;28;20230;-77
2021/04/06 07:48:41;;;;;;;3.73;1.53;;;;;;;;;;10454371;28;20305;-77
2021/04/06 07:53:54;;;;;;;5.03;1.63;;;;;;;;;;10453538;28;20239;-77
2021/04/06 07:58:56;;;;;;;4.57;1.70;;;;;;;;;;10453875;28;20329;-77
2021/04/06 08:04:02;;;;;;;3.93;1.87;;;;;;;;;;10462407;28;20243;-76
2021/04/06 08:09:26;;;;;;;3.83;1.60;;;;;;;;;;10453812;28;20725;-77
2021/04/06 08:14:28;;;;;;;3.90;1.80;;;;;;;;;;10451452;28;20771;-77
2021/04/06 08:19:31;;;;;;;4.43;1.80;;;;;;;;;;10456250;28;20223;-77
2021/04/06 08:24:36;;;;;;;7.30;2.17;;;;;;;;;;10470305;28;20829;-77
2021/04/06 08:29:42;;;;;;;9.63;2.53;;;;;;;;;;10455951;28;20244;-77
2021/04/06 08:34:50;;;;;;;8.83;2.60;;;;;;;;;;10454716;28;20255;-76
2021/04/06 08:39:54;;;;;;;12.30;3.23;;;;;;;;;;10453858;28;20226;-76
2021/04/06 08:44:56;;;;;;;5.67;2.30;;;;;;;;;;10450448;28;20237;-76
2021/04/06 08:49:59;;;;;;;7.93;2.07;;;;;;;;;;10455078;28;20283;-76
2021/04/06 08:55:12;;;;;;;5.10;1.93;;;;;;;;;;10443928;28;20231;-76
2021/04/06 09:00:17;;;;;;;7.90;2.03;;;;;;;;;;10453701;28;20221;-76
2021/04/06 09:05:19;;;;;;;5.37;1.97;;;;;;;;;;10443949;28;20321;-76
2021/04/06 09:10:24;;;;;;;8.17;2.27;;;;;;;;;;10453173;28;20838;-76
2021/04/06 09:15:26;;;;;;;9.00;2.10;;;;;;;;;;10450164;28;20241;-76
2021/04/06 09:20:28;;;;;;;11.97;2.27;;;;;;;;;;10457692;28;20216;-76
2021/04/06 09:25:32;;;;;;;5.03;1.87;;;;;;;;;;10457484;28;20633;-77
2021/04/06 09:30:40;;;;;;;6.17;1.97;;;;;;;;;;10447909;28;20211;-76
2021/04/06 09:35:45;;;;;;;5.80;1.80;;;;;;;;;;10447063;28;20330;-77
2021/04/06 09:40:48;;;;;;;12.60;2.10;;;;;;;;;;10453735;28;20886;-76
2021/04/06 09:45:50;;;;;;;7.00;2.13;;;;;;;;;;10448279;28;20203;-77
2021/04/06 09:50:56;;;;;;;3.93;1.80;;;;;;;;;;10454205;28;20246;-77
2021/04/06 09:56:00;;;;;;;5.03;1.60;;;;;;;;;;10452021;28;20274;-77
2021/04/06 10:01:15;;;;;;;2.23;1.40;;;;;;;;;;10456135;28;20222;-75
2021/04/06 10:06:17;;;;;;;5.23;1.70;;;;;;;;;;10460903;28;20220;-76
2021/04/06 10:11:24;;;;;;;3.97;1.60;;;;;;;;;;10452534;28;20242;-76
2021/04/06 10:16:32;;;;;;;2.67;1.50;;;;;;;;;;10445993;28;20239;-76
2021/04/06 10:21:35;;;;;;;6.60;2.03;;;;;;;;;;10437318;28;20214;-76
2021/04/06 10:26:38;;;;;;;4.23;1.57;;;;;;;;;;10443918;28;20215;-76
2021/04/06 10:31:47;;;;;;;6.43;1.60;;;;;;;;;;10443653;28;20235;-76
2021/04/06 10:36:59;;;;;;;4.80;1.60;;;;;;;;;;10448375;28;20217;-77
2021/04/06 10:42:06;;;;;;;5.47;1.70;;;;;;;;;;10448714;28;20850;-76
2021/04/06 10:47:12;;;;;;;4.97;1.50;;;;;;;;;;10449967;28;20215;-76
2021/04/06 10:52:14;;;;;;;2.20;1.40;;;;;;;;;;10443688;28;20234;-76
2021/04/06 10:57:25;;;;;;;3.63;1.50;;;;;;;;;;10448234;28;20234;-76
2021/04/06 11:02:43;;;;;;;5.83;1.40;;;;;;;;;;10443068;28;20254;-76
2021/04/06 21:06:18;;;;;;;4.23;1.53;;;;;;;;;;10447614;28;20202;-77
2021/04/06 21:11:20;;;;;;;4.70;1.87;;;;;;;;;;10436929;28;20874;-76
2021/04/06 21:21:53;;;;;;;4.23;1.50;;;;;;;;;;10439653;28;20215;-75
2021/04/06 21:26:57;;;;;;;4.80;2.00;;;;;;;;;;10438608;28;20272;-75
2021/04/06 21:32:04;;;;;;;4.07;1.90;;;;;;;;;;10449345;28;20294;-76
2021/04/06 21:37:07;;;;;;;5.97;2.00;;;;;;;;;;10444917;28;20223;-76
2021/04/06 21:42:09;;;;;;;5.87;2.13;;;;;;;;;;10446214;28;20596;-75
2021/04/06 21:47:11;;;;;;;9.27;2.43;;;;;;;;;;10447378;28;20219;-76
2021/04/06 21:52:13;;;;;;;7.40;2.20;;;;;;;;;;10444518;28;20250;-76
2021/04/06 21:57:15;;;;;;;8.27;2.20;;;;;;;;;;10443315;28;20215;-76
